createdAt,value
2022-11-16T00:02:13.762Z,42.53
2022-11-16T00:04:40.556Z,51.88
2022-11-16T00:07:07.591Z,58.67
2022-11-16T00:09:34.326Z,45.13
2022-11-16T00:12:03.990Z,48.75
2022-11-16T00:14:33.061Z,43.65
2022-11-16T00:17:00.437Z,45.08
2022-11-16T00:19:28.035Z,40.80
2022-11-16T00:21:55.031Z,41.42
2022-11-16T00:24:23.356Z,42.33
2022-11-16T00:26:50.727Z,43.65
2022-11-16T00:29:20.167Z,46.45
2022-11-16T00:31:47.500Z,41.55
2022-11-16T00:34:14.542Z,45.65
2022-11-16T00:36:41.225Z,45.83
2022-11-16T00:39:10.176Z,46.35
2022-11-16T00:41:36.697Z,46.13
2022-11-16T00:44:03.239Z,50.60
2022-11-16T00:46:29.771Z,38.97
2022-11-16T00:48:56.337Z,40.90
2022-11-16T00:51:22.853Z,39.58
2022-11-16T00:53:49.379Z,42.80
2022-11-16T00:56:15.941Z,37.45
2022-11-16T00:58:42.454Z,44.80
2022-11-16T01:01:11.262Z,45.00
2022-11-16T01:03:39.475Z,44.08
2022-11-16T01:06:08.990Z,41.85
2022-11-16T01:08:37.239Z,46.60
2022-11-16T01:11:43.462Z,45.13
2022-11-16T01:14:10.687Z,48.85
2022-11-16T01:16:37.687Z,41.35
2022-11-16T01:19:05.316Z,41.90
2022-11-16T01:21:32.035Z,43.53
2022-11-16T01:23:58.570Z,49.92
2022-11-16T01:26:25.533Z,45.30
2022-11-16T01:28:52.476Z,53.25
2022-11-16T01:31:19.429Z,54.08
2022-11-16T01:33:46.014Z,49.00
2022-11-16T01:36:17.329Z,42.10
2022-11-16T01:38:46.017Z,57.40
2022-11-16T01:41:18.239Z,56.22
2022-11-16T01:44:02.959Z,41.92
2022-11-16T01:46:30.718Z,51.60
2022-11-16T01:49:11.963Z,43.03
2022-11-16T01:51:42.423Z,57.50
2022-11-16T01:54:11.773Z,52.55
2022-11-16T01:56:39.723Z,56.92
2022-11-16T01:59:06.688Z,57.47
2022-11-16T02:01:33.291Z,51.08
2022-11-16T02:03:59.879Z,52.72
2022-11-16T02:06:26.346Z,47.50
2022-11-16T02:09:43.130Z,48.03
2022-11-16T02:12:43.590Z,54.45
2022-11-16T02:15:25.551Z,46.13
2022-11-16T02:18:00.707Z,40.92
2022-11-16T02:20:51.526Z,45.65
2022-11-16T02:23:52.350Z,37.22
2022-11-16T02:26:39.435Z,38.83
2022-11-16T02:29:19.059Z,40.90
2022-11-16T02:31:59.434Z,43.40
2022-11-16T02:34:31.135Z,43.90
2022-11-16T02:37:01.866Z,42.50
2022-11-16T02:39:31.879Z,40.17
2022-11-16T02:42:01.715Z,37.55
2022-11-16T02:44:35.699Z,46.00
2022-11-16T02:47:08.395Z,33.57
2022-11-16T02:49:40.363Z,42.63
2022-11-16T02:52:08.929Z,38.55
2022-11-16T02:54:35.490Z,37.78
2022-11-16T02:57:04.969Z,40.10
2022-11-16T02:59:55.175Z,40.72
2022-11-16T03:02:35.446Z,44.40
2022-11-16T03:05:08.720Z,43.95
2022-11-16T03:07:45.024Z,44.03
2022-11-16T03:10:32.234Z,42.60
2022-11-16T03:13:02.300Z,38.85
2022-11-16T03:15:30.299Z,42.30
2022-11-16T03:17:59.527Z,45.38
2022-11-16T03:20:30.254Z,42.92
2022-11-16T03:23:10.363Z,42.78
2022-11-16T03:25:44.979Z,37.63
2022-11-16T03:28:29.265Z,48.40
2022-11-16T03:31:01.029Z,47.22
2022-11-16T03:33:29.854Z,48.22
2022-11-16T03:36:22.355Z,41.35
2022-11-16T03:38:50.955Z,39.67
2022-11-16T03:41:20.167Z,47.38
2022-11-16T03:43:49.335Z,43.35
2022-11-16T03:46:17.559Z,48.50
2022-11-16T03:48:44.157Z,47.97
2022-11-16T03:51:11.416Z,40.03
2022-11-16T03:53:38.034Z,46.47
2022-11-16T03:56:04.799Z,45.05
2022-11-16T03:58:31.871Z,50.40
2022-11-16T04:00:58.789Z,42.53
2022-11-16T04:03:25.339Z,49.85
2022-11-16T04:06:10.613Z,48.05
2022-11-16T04:08:55.428Z,46.25
2022-11-16T04:11:41.551Z,47.70
2022-11-16T04:14:32.593Z,41.92
2022-11-16T04:17:17.915Z,42.33
2022-11-16T04:22:53.120Z,44.93
2022-11-16T04:25:24.555Z,44.60
2022-11-16T04:28:11.051Z,54.22
2022-11-16T04:30:56.441Z,46.97
2022-11-16T04:33:41.698Z,46.58
2022-11-16T04:38:53.693Z,46.95
2022-11-16T04:41:38.804Z,46.75
2022-11-16T04:44:05.485Z,48.13
2022-11-16T04:46:50.443Z,44.35
2022-11-16T04:49:17.030Z,47.10
2022-11-16T04:51:43.567Z,37.78
2022-11-16T04:54:10.073Z,36.47
2022-11-16T04:56:36.650Z,36.30
2022-11-16T04:59:03.405Z,43.25
2022-11-16T05:01:48.337Z,48.42
2022-11-16T05:04:14.897Z,45.30
2022-11-16T05:06:41.449Z,43.85
2022-11-16T05:09:08.132Z,43.38
2022-11-16T05:11:34.712Z,38.38
2022-11-16T05:14:02.472Z,40.80
2022-11-16T05:16:29.848Z,42.08
2022-11-16T05:19:14.657Z,35.05
2022-11-16T05:21:41.168Z,37.55
2022-11-16T05:24:26.324Z,40.33
2022-11-16T05:26:52.883Z,31.55
2022-11-16T05:29:19.387Z,35.20
2022-11-16T05:31:45.926Z,30.65
2022-11-16T05:34:12.983Z,34.38
2022-11-16T05:36:39.567Z,30.02
2022-11-16T05:39:06.878Z,35.80
2022-11-16T05:41:33.608Z,31.75
2022-11-16T05:44:00.114Z,32.10
2022-11-16T05:46:26.596Z,33.20
2022-11-16T05:48:53.166Z,35.75
2022-11-16T05:51:19.963Z,38.65
2022-11-16T05:53:46.596Z,40.40
2022-11-16T05:56:15.117Z,48.05
2022-11-16T05:58:42.413Z,42.33
2022-11-16T06:01:08.983Z,34.30
2022-11-16T06:03:36.454Z,30.70
2022-11-16T06:06:05.164Z,26.23
2022-11-16T06:08:32.275Z,24.05
2022-11-16T06:11:04.343Z,24.38
2022-11-16T06:13:31.645Z,22.02
2022-11-16T06:15:58.858Z,31.38
2022-11-16T06:18:25.533Z,32.50
2022-11-16T06:20:52.337Z,36.47
2022-11-16T06:23:19.160Z,32.60
2022-11-16T06:25:46.094Z,37.40
2022-11-16T06:28:13.192Z,41.35
2022-11-16T06:30:40.682Z,37.17
2022-11-16T06:33:08.095Z,35.78
2022-11-16T06:35:34.680Z,35.22
2022-11-16T06:38:01.239Z,33.55
2022-11-16T06:40:27.748Z,34.85
2022-11-16T06:42:54.327Z,32.00
2022-11-16T06:45:20.853Z,30.02
2022-11-16T06:47:47.440Z,34.30
2022-11-16T06:50:14.039Z,30.98
2022-11-16T06:52:40.564Z,30.63
2022-11-16T06:55:07.418Z,35.58
2022-11-16T06:57:35.643Z,36.22
2022-11-16T07:00:02.472Z,34.63
2022-11-16T07:02:28.979Z,30.65
2022-11-16T07:05:00.603Z,44.95
2022-11-16T07:07:29.884Z,35.00
2022-11-16T07:09:56.449Z,40.30
2022-11-16T07:12:23.039Z,42.95
2022-11-16T07:14:49.622Z,36.35
2022-11-16T07:17:16.179Z,37.88
2022-11-16T07:19:42.719Z,36.05
2022-11-16T07:22:09.230Z,41.78
2022-11-16T07:24:35.793Z,36.97
2022-11-16T07:27:02.320Z,35.67
2022-11-16T07:29:29.331Z,36.05
2022-11-16T07:31:55.906Z,36.47
2022-11-16T07:34:22.430Z,37.47
2022-11-16T07:36:48.967Z,33.38
2022-11-16T07:39:15.528Z,37.72
2022-11-16T07:41:45.287Z,36.67
2022-11-16T07:44:12.375Z,32.88
2022-11-16T07:46:47.774Z,44.03
2022-11-16T07:49:16.119Z,38.97
2022-11-16T07:51:43.177Z,42.80
2022-11-16T07:54:14.605Z,36.70
2022-11-16T07:56:41.978Z,35.95
2022-11-16T07:59:08.944Z,30.83
2022-11-16T08:01:35.902Z,40.30
2022-11-16T08:04:02.798Z,35.70
2022-11-16T08:06:31.435Z,38.42
2022-11-16T08:08:58.901Z,44.47
2022-11-16T08:11:25.712Z,43.05
2022-11-16T08:13:52.319Z,42.65
2022-11-16T08:16:21.511Z,41.50
2022-11-16T08:18:48.077Z,35.67
2022-11-16T08:21:16.389Z,36.20
2022-11-16T08:23:44.953Z,40.42
2022-11-16T08:26:16.638Z,29.77
2022-11-16T08:28:45.047Z,31.90
2022-11-16T08:31:14.546Z,34.45
2022-11-16T08:33:41.422Z,26.52
2022-11-16T08:36:13.978Z,30.90
2022-11-16T08:38:41.252Z,24.10
2022-11-16T08:41:07.816Z,24.08
2022-11-16T08:43:35.867Z,22.88
2022-11-16T08:46:03.182Z,23.92
2022-11-16T08:48:29.835Z,22.67
2022-11-16T08:51:17.009Z,22.42
2022-11-16T08:53:44.611Z,22.50
2022-11-16T08:56:15.382Z,22.08
2022-11-16T08:58:44.248Z,22.85
2022-11-16T09:01:16.419Z,21.98
2022-11-16T09:03:43.343Z,21.15
2022-11-16T09:06:11.193Z,21.13
2022-11-16T09:08:39.707Z,22.40
2022-11-16T09:11:12.557Z,20.85
2022-11-16T09:13:39.924Z,21.63
2022-11-16T09:16:06.671Z,22.73
2022-11-16T09:18:34.679Z,22.63
2022-11-16T09:21:01.612Z,24.65
2022-11-16T09:23:28.287Z,19.55
2022-11-16T09:25:55.319Z,22.70
2022-11-16T09:28:22.866Z,21.70
2022-11-16T09:30:51.079Z,24.90
2022-11-16T09:33:18.174Z,23.52
2022-11-16T09:35:45.107Z,25.08
2022-11-16T09:38:14.843Z,24.85
2022-11-16T09:40:47.552Z,25.42
2022-11-16T09:43:26.090Z,25.55
2022-11-16T09:46:03.327Z,25.33
2022-11-16T09:48:35.665Z,24.20
2022-11-16T09:51:08.260Z,29.02
2022-11-16T09:53:57.360Z,25.38
2022-11-16T09:56:25.996Z,25.15
2022-11-16T09:59:18.369Z,27.23
2022-11-16T10:01:52.578Z,31.92
2022-11-16T10:04:28.306Z,25.50
2022-11-16T10:07:02.961Z,31.65
2022-11-16T10:09:30.553Z,28.90
2022-11-16T10:12:09.325Z,39.65
2022-11-16T10:15:01.476Z,41.30
2022-11-16T10:17:43.027Z,36.38
2022-11-16T10:20:30.922Z,37.22
2022-11-16T10:23:27.644Z,39.42
2022-11-16T10:26:03.291Z,36.33
2022-11-16T10:29:05.755Z,30.27
2022-11-16T10:31:51.565Z,34.95
2022-11-16T10:34:38.696Z,34.78
2022-11-16T10:37:08.550Z,39.20
2022-11-16T10:39:40.347Z,40.25
2022-11-16T10:42:13.415Z,33.45
2022-11-16T10:45:03.684Z,32.92
2022-11-16T10:47:46.822Z,32.97
2022-11-16T10:50:35.002Z,34.10
2022-11-16T10:53:01.686Z,27.85
2022-11-16T10:55:29.115Z,28.08
2022-11-16T10:58:00.189Z,30.05
2022-11-16T11:00:52.880Z,28.10
2022-11-16T11:03:33.712Z,27.52
2022-11-16T11:06:00.519Z,38.92
2022-11-16T11:08:31.322Z,35.38
2022-11-16T11:11:25.189Z,39.55
2022-11-16T11:14:11.633Z,49.97
2022-11-16T11:16:38.667Z,41.35
2022-11-16T11:19:28.042Z,34.25
2022-11-16T11:22:01.048Z,34.60
2022-11-16T11:24:45.293Z,33.33
2022-11-16T11:27:12.416Z,29.98
2022-11-16T11:29:42.666Z,32.95
2022-11-16T11:32:23.521Z,33.65
2022-11-16T11:34:53.936Z,30.75
2022-11-16T11:37:29.291Z,27.27
2022-11-16T11:40:17.479Z,34.72
2022-11-16T11:43:05.173Z,28.77
2022-11-16T11:45:49.867Z,30.00
2022-11-16T11:48:36.646Z,30.55
2022-11-16T11:51:19.371Z,25.77
2022-11-16T11:53:58.957Z,26.10
2022-11-16T11:56:27.561Z,27.15
2022-11-16T11:58:54.730Z,29.20
2022-11-16T12:01:48.184Z,31.35
2022-11-16T12:04:28.319Z,27.42
2022-11-16T12:07:03.535Z,24.13
2022-11-16T12:09:44.870Z,31.67
2022-11-16T12:12:17.897Z,25.25
2022-11-16T12:15:07.969Z,35.35
2022-11-16T12:18:08.144Z,27.67
2022-11-16T12:20:52.898Z,29.13
2022-11-16T12:23:37.777Z,23.55
2022-11-16T12:26:23.618Z,29.63
2022-11-16T12:29:05.127Z,24.73
2022-11-16T12:31:37.736Z,26.90
2022-11-16T12:34:18.299Z,24.60
2022-11-16T12:37:00.679Z,28.25
2022-11-16T12:39:35.731Z,29.83
2022-11-16T12:42:29.685Z,29.83
2022-11-16T12:45:40.717Z,29.73
2022-11-16T12:48:31.745Z,30.88
2022-11-16T12:51:36.833Z,24.75
2022-11-16T12:54:21.760Z,29.00
2022-11-16T12:56:59.455Z,29.70
2022-11-16T12:59:57.491Z,24.65
2022-11-16T13:02:44.682Z,25.38
2022-11-16T13:05:20.248Z,28.10
2022-11-16T13:08:05.468Z,30.30
2022-11-16T13:13:35.028Z,25.67
2022-11-16T13:15:53.737Z,26.88
2022-11-16T13:18:22.974Z,31.25
2022-11-16T13:21:16.156Z,26.63
2022-11-16T13:24:24.358Z,28.92
2022-11-16T13:27:22.146Z,27.38
2022-11-16T13:29:53.781Z,26.42
2022-11-16T13:32:32.194Z,26.70
2022-11-16T13:35:00.627Z,24.52
2022-11-16T13:37:39.349Z,25.85
2022-11-16T13:40:05.816Z,23.48
2022-11-16T13:42:58.099Z,28.13
2022-11-16T13:45:52.029Z,26.45
2022-11-16T13:48:23.734Z,26.80
2022-11-16T13:50:54.621Z,27.23
2022-11-16T13:56:13.629Z,22.20
2022-11-16T13:58:47.022Z,26.52
2022-11-16T14:01:15.163Z,22.80
2022-11-16T14:03:43.509Z,19.90
2022-11-16T14:06:13.002Z,31.05
2022-11-16T14:08:39.506Z,26.05
2022-11-16T14:11:46.211Z,25.45
2022-11-16T14:14:33.665Z,25.70
2022-11-16T14:17:00.173Z,25.45
2022-11-16T14:19:52.280Z,26.70
2022-11-16T14:22:59.768Z,26.42
2022-11-16T14:25:33.228Z,23.83
2022-11-16T14:28:17.151Z,25.60
2022-11-16T14:30:52.843Z,25.40
2022-11-16T14:33:33.291Z,28.55
2022-11-16T14:36:03.520Z,33.75
2022-11-16T14:38:36.646Z,30.10
2022-11-16T14:41:06.380Z,29.58
2022-11-16T14:43:40.579Z,30.65
2022-11-16T14:46:21.967Z,32.47
2022-11-16T14:48:49.579Z,37.45
2022-11-16T14:51:24.663Z,28.95
2022-11-16T14:53:56.734Z,32.03
2022-11-16T14:56:23.344Z,30.15
2022-11-16T14:58:57.846Z,33.40
2022-11-16T15:01:35.731Z,27.92
2022-11-16T15:04:09.213Z,26.58
2022-11-16T15:06:42.135Z,32.42
2022-11-16T15:09:17.302Z,27.17
2022-11-16T15:12:07.066Z,27.27
2022-11-16T15:14:39.727Z,26.83
2022-11-16T15:17:09.075Z,27.48
2022-11-16T15:19:35.687Z,33.28
2022-11-16T15:22:04.392Z,31.00
2022-11-16T15:24:35.260Z,32.35
2022-11-16T15:27:40.761Z,26.08
2022-11-16T15:30:36.982Z,27.98
2022-11-16T15:33:15.167Z,23.00
2022-11-16T15:35:41.755Z,38.38
2022-11-16T15:38:24.261Z,26.10
2022-11-16T15:40:52.592Z,37.15
2022-11-16T15:43:21.513Z,32.92
2022-11-16T15:45:49.214Z,30.63
2022-11-16T15:48:26.571Z,26.85
2022-11-16T15:51:16.385Z,32.33
2022-11-16T15:53:44.265Z,28.45
2022-11-16T15:56:22.467Z,28.65
2022-11-16T15:58:49.475Z,27.25
2022-11-16T16:01:16.605Z,25.45
2022-11-16T16:03:58.725Z,26.77
2022-11-16T16:06:46.537Z,29.70
2022-11-16T16:09:38.751Z,29.95
2022-11-16T16:12:21.667Z,27.20
2022-11-16T16:14:50.294Z,25.48
2022-11-16T16:17:28.560Z,27.58
2022-11-16T16:20:00.994Z,28.73
2022-11-16T16:22:31.446Z,25.42
2022-11-16T16:24:58.378Z,24.92
2022-11-16T16:27:29.108Z,26.45
2022-11-16T16:29:57.875Z,24.58
2022-11-16T16:32:27.070Z,22.67
2022-11-16T16:34:55.724Z,23.30
2022-11-16T16:37:22.749Z,22.67
2022-11-16T16:39:49.307Z,25.02
2022-11-16T16:42:17.390Z,24.95
2022-11-16T16:44:45.404Z,27.05
2022-11-16T16:47:12.660Z,26.23
2022-11-16T16:49:39.446Z,29.65
2022-11-16T16:52:07.352Z,28.35
2022-11-16T16:54:33.975Z,23.98
2022-11-16T16:57:02.373Z,27.90
2022-11-16T16:59:32.063Z,27.80
2022-11-16T17:01:59.136Z,27.15
2022-11-16T17:04:25.748Z,24.63
2022-11-16T17:06:53.180Z,22.02
2022-11-16T17:09:20.237Z,27.38
2022-11-16T17:11:47.555Z,24.70
2022-11-16T17:14:14.131Z,30.30
2022-11-16T17:16:40.790Z,26.67
2022-11-16T17:19:07.334Z,25.98
2022-11-16T17:21:33.902Z,24.38
2022-11-16T17:24:00.410Z,30.42
2022-11-16T17:26:29.541Z,26.95
2022-11-16T17:28:57.341Z,29.45
2022-11-16T17:31:24.801Z,29.17
2022-11-16T17:33:51.894Z,34.17
2022-11-16T17:36:19.102Z,35.25
2022-11-16T17:38:45.682Z,30.02
2022-11-16T17:41:18.311Z,30.40
2022-11-16T17:43:46.247Z,31.30
2022-11-16T17:46:15.794Z,33.83
2022-11-16T17:48:44.460Z,29.50
2022-11-16T17:51:12.616Z,35.25
2022-11-16T17:53:39.939Z,34.38
2022-11-16T17:56:07.694Z,47.30
2022-11-16T17:58:34.606Z,31.05
2022-11-16T18:01:01.456Z,34.25
2022-11-16T18:03:30.588Z,35.42
2022-11-16T18:06:09.682Z,34.80
2022-11-16T18:08:36.898Z,28.48
2022-11-16T18:11:12.003Z,31.48
2022-11-16T18:13:38.987Z,39.60
2022-11-16T18:16:17.146Z,34.63
2022-11-16T18:18:45.728Z,33.70
2022-11-16T18:21:20.120Z,34.70
2022-11-16T18:23:47.899Z,34.38
2022-11-16T18:26:16.927Z,31.65
2022-11-16T18:28:51.007Z,33.47
2022-11-16T18:31:20.526Z,33.20
2022-11-16T18:33:49.106Z,31.42
2022-11-16T18:36:16.541Z,33.30
2022-11-16T18:38:43.111Z,31.25
2022-11-16T18:41:12.335Z,31.10
2022-11-16T18:44:00.409Z,32.47
2022-11-16T18:46:29.080Z,39.38
2022-11-16T18:48:56.117Z,34.63
2022-11-16T18:51:24.156Z,35.45
2022-11-16T18:53:50.940Z,33.00
2022-11-16T18:56:18.541Z,34.10
2022-11-16T18:58:53.471Z,28.98
2022-11-16T19:01:26.377Z,36.50
2022-11-16T19:03:53.863Z,36.13
2022-11-16T19:06:21.006Z,64.85
2022-11-16T19:08:55.709Z,45.53
2022-11-16T19:11:24.063Z,36.17
2022-11-16T19:13:55.923Z,35.50
2022-11-16T19:16:23.679Z,32.58
2022-11-16T19:18:50.582Z,35.08
2022-11-16T19:21:21.949Z,36.30
2022-11-16T19:23:53.288Z,39.92
2022-11-16T19:26:25.311Z,36.03
2022-11-16T19:28:53.480Z,33.55
2022-11-16T19:31:21.517Z,32.30
2022-11-16T19:34:05.078Z,35.05
2022-11-16T19:36:32.799Z,32.50
2022-11-16T19:38:59.443Z,36.03
2022-11-16T19:41:27.012Z,34.92
2022-11-16T19:43:59.624Z,33.15
2022-11-16T19:46:28.052Z,29.48
2022-11-16T19:48:55.637Z,32.33
2022-11-16T19:51:28.359Z,35.45
2022-11-16T19:53:55.952Z,33.35
2022-11-16T19:56:23.958Z,35.45
2022-11-16T19:58:50.989Z,34.47
2022-11-16T20:01:27.652Z,32.80
2022-11-16T20:03:56.701Z,35.00
2022-11-16T20:06:26.547Z,31.42
2022-11-16T20:08:59.038Z,31.10
2022-11-16T20:11:28.198Z,31.08
2022-11-16T20:13:56.189Z,31.08
2022-11-16T20:16:28.076Z,30.38
2022-11-16T20:18:55.260Z,29.75
2022-11-16T20:21:25.920Z,30.65
2022-11-16T20:23:53.429Z,27.73
2022-11-16T20:26:21.442Z,31.08
2022-11-16T20:28:51.079Z,29.48
2022-11-16T20:31:20.436Z,27.85
2022-11-16T20:33:53.966Z,25.60
2022-11-16T20:36:22.931Z,26.63
2022-11-16T20:38:50.326Z,26.52
2022-11-16T20:41:21.941Z,26.23
2022-11-16T20:43:51.554Z,28.08
2022-11-16T20:46:19.090Z,29.35
2022-11-16T20:48:46.159Z,24.23
2022-11-16T20:51:15.237Z,27.58
2022-11-16T20:53:41.826Z,27.25
2022-11-16T20:56:10.828Z,29.52
2022-11-16T20:58:38.257Z,25.05
2022-11-16T21:01:07.994Z,32.97
2022-11-16T21:03:35.065Z,29.42
2022-11-16T21:06:01.949Z,31.55
2022-11-16T21:08:29.848Z,32.05
2022-11-16T21:10:56.767Z,29.42
2022-11-16T21:13:42.512Z,24.63
2022-11-16T21:16:13.711Z,28.00
2022-11-16T21:18:40.583Z,26.80
2022-11-16T21:21:11.110Z,31.65
2022-11-16T21:23:39.621Z,33.20
2022-11-16T21:26:15.337Z,30.88
2022-11-16T21:28:44.713Z,33.25
2022-11-16T21:31:16.681Z,29.75
2022-11-16T21:33:50.215Z,28.63
2022-11-16T21:36:19.077Z,31.38
2022-11-16T21:38:46.121Z,29.65
2022-11-16T21:41:14.507Z,30.70
2022-11-16T21:43:41.539Z,32.38
2022-11-16T21:46:11.695Z,31.75
2022-11-16T21:48:39.057Z,30.58
2022-11-16T21:51:11.284Z,35.00
2022-11-16T21:53:38.489Z,39.00
2022-11-16T21:56:06.568Z,35.05
2022-11-16T21:58:33.183Z,31.25
2022-11-16T22:01:02.189Z,34.08
2022-11-16T22:03:31.034Z,35.33
2022-11-16T22:06:18.591Z,34.08
2022-11-16T22:08:46.080Z,36.05
2022-11-16T22:11:13.703Z,34.75
2022-11-16T22:13:40.872Z,28.92
2022-11-16T22:16:09.544Z,32.55
2022-11-16T22:18:36.649Z,34.22
2022-11-16T22:21:03.713Z,31.55
2022-11-16T22:23:30.768Z,32.28
2022-11-16T22:26:08.461Z,34.50
2022-11-16T22:28:35.296Z,33.20
2022-11-16T22:31:04.247Z,33.13
2022-11-16T22:33:31.809Z,35.45
2022-11-16T22:35:59.024Z,30.35
2022-11-16T22:38:26.293Z,32.05
2022-11-16T22:40:54.943Z,35.03
2022-11-16T22:43:24.593Z,31.65
2022-11-16T22:45:51.413Z,36.78
2022-11-16T22:48:18.208Z,33.83
2022-11-16T22:50:44.730Z,34.65
2022-11-16T22:53:11.353Z,31.50
2022-11-16T22:55:38.852Z,28.48
2022-11-16T22:58:05.926Z,34.65
2022-11-16T23:00:38.937Z,29.73
2022-11-16T23:03:05.658Z,34.95
2022-11-16T23:05:32.202Z,35.92
2022-11-16T23:07:58.745Z,31.60
2022-11-16T23:10:25.249Z,32.45
2022-11-16T23:13:10.159Z,33.60
2022-11-16T23:15:51.595Z,31.75
2022-11-16T23:18:19.681Z,29.27
2022-11-16T23:21:12.660Z,29.75
2022-11-16T23:23:57.510Z,34.97
2022-11-16T23:26:44.642Z,30.27
2022-11-16T23:29:11.707Z,27.40
2022-11-16T23:31:38.542Z,34.53
2022-11-16T23:34:05.382Z,35.33
2022-11-16T23:36:31.963Z,30.00
2022-11-16T23:38:58.520Z,29.33
2022-11-16T23:41:43.747Z,34.63
2022-11-16T23:44:10.362Z,29.52
2022-11-16T23:46:36.944Z,30.30
2022-11-16T23:49:03.474Z,37.03
2022-11-16T23:51:29.991Z,36.58
2022-11-16T23:53:56.665Z,34.58
2022-11-16T23:56:23.587Z,32.72
2022-11-16T23:58:50.263Z,32.65
